sensor_id;sensor_type;location;lat;lon;timestamp;P1;durP1;ratioP1;P2;durP2;ratioP2
21188;SDS011;39071;52.420;20.896;2022-12-07T00:01:24;13.03;;;6.97;;
21188;SDS011;39071;52.420;20.896;2022-12-07T00:03:52;12.60;;;5.17;;
21188;SDS011;39071;52.420;20.896;2022-12-07T00:06:19;14.87;;;5.60;;
21188;SDS011;39071;52.420;20.896;2022-12-07T00:08:45;10.13;;;5.17;;
21188;SDS011;39071;52.420;20.896;2022-12-07T00:11:19;11.80;;;4.73;;
21188;SDS011;39071;52.420;20.896;2022-12-07T00:13:47;14.90;;;4.23;;
21188;SDS011;39071;52.420;20.896;2022-12-07T00:16:18;11.80;;;6.77;;
21188;SDS011;39071;52.420;20.896;2022-12-07T00:18:45;10.13;;;5.07;;
21188;SDS011;39071;52.420;20.896;2022-12-07T00:21:15;12.23;;;3.83;;
21188;SDS011;39071;52.420;20.896;2022-12-07T00:23:43;7.33;;;4.70;;
21188;SDS011;39071;52.420;20.896;2022-12-07T00:26:11;10.87;;;3.97;;
21188;SDS011;39071;52.420;20.896;2022-12-07T00:28:38;10.80;;;4.47;;
21188;SDS011;39071;52.420;20.896;2022-12-07T00:31:05;11.13;;;4.37;;
21188;SDS011;39071;52.420;20.896;2022-12-07T00:33:32;6.47;;;3.27;;
21188;SDS011;39071;52.420;20.896;2022-12-07T00:35:59;15.97;;;5.03;;
21188;SDS011;39071;52.420;20.896;2022-12-07T00:38:27;10.67;;;4.13;;
21188;SDS011;39071;52.420;20.896;2022-12-07T00:41:02;5.33;;;4.37;;
21188;SDS011;39071;52.420;20.896;2022-12-07T00:43:34;8.67;;;4.60;;
21188;SDS011;39071;52.420;20.896;2022-12-07T00:45:59;11.07;;;4.63;;
21188;SDS011;39071;52.420;20.896;2022-12-07T00:48:25;10.00;;;5.63;;
21188;SDS011;39071;52.420;20.896;2022-12-07T00:50:51;6.53;;;3.10;;
21188;SDS011;39071;52.420;20.896;2022-12-07T00:53:18;12.77;;;5.63;;
21188;SDS011;39071;52.420;20.896;2022-12-07T00:55:44;10.57;;;5.50;;
21188;SDS011;39071;52.420;20.896;2022-12-07T00:58:11;10.73;;;4.23;;
21188;SDS011;39071;52.420;20.896;2022-12-07T01:00:37;9.30;;;4.27;;
21188;SDS011;39071;52.420;20.896;2022-12-07T01:03:05;7.37;;;3.73;;
21188;SDS011;39071;52.420;20.896;2022-12-07T01:05:32;10.50;;;4.27;;
21188;SDS011;39071;52.420;20.896;2022-12-07T01:07:58;7.23;;;4.23;;
21188;SDS011;39071;52.420;20.896;2022-12-07T01:10:25;7.33;;;4.83;;
21188;SDS011;39071;52.420;20.896;2022-12-07T01:12:51;9.27;;;3.77;;
21188;SDS011;39071;52.420;20.896;2022-12-07T01:15:17;8.43;;;4.67;;
21188;SDS011;39071;52.420;20.896;2022-12-07T01:17:43;6.73;;;2.63;;
21188;SDS011;39071;52.420;20.896;2022-12-07T01:20:09;9.47;;;2.93;;
21188;SDS011;39071;52.420;20.896;2022-12-07T01:22:36;5.87;;;3.97;;
21188;SDS011;39071;52.420;20.896;2022-12-07T01:25:03;3.87;;;3.53;;
21188;SDS011;39071;52.420;20.896;2022-12-07T01:27:30;6.97;;;3.40;;
21188;SDS011;39071;52.420;20.896;2022-12-07T01:29:55;3.97;;;2.97;;
21188;SDS011;39071;52.420;20.896;2022-12-07T01:32:21;6.67;;;2.80;;
21188;SDS011;39071;52.420;20.896;2022-12-07T01:34:47;9.77;;;3.70;;
21188;SDS011;39071;52.420;20.896;2022-12-07T01:37:13;7.03;;;2.63;;
21188;SDS011;39071;52.420;20.896;2022-12-07T01:39:39;8.33;;;4.33;;
21188;SDS011;39071;52.420;20.896;2022-12-07T01:42:09;7.07;;;3.73;;
21188;SDS011;39071;52.420;20.896;2022-12-07T01:47:38;9.30;;;4.17;;
21188;SDS011;39071;52.420;20.896;2022-12-07T01:50:04;9.07;;;3.73;;
21188;SDS011;39071;52.420;20.896;2022-12-07T01:52:31;10.20;;;3.23;;
21188;SDS011;39071;52.420;20.896;2022-12-07T01:55:02;10.33;;;3.63;;
21188;SDS011;39071;52.420;20.896;2022-12-07T01:57:32;6.50;;;3.57;;
21188;SDS011;39071;52.420;20.896;2022-12-07T02:00:03;9.87;;;3.57;;
21188;SDS011;39071;52.420;20.896;2022-12-07T02:02:31;10.67;;;4.13;;
21188;SDS011;39071;52.420;20.896;2022-12-07T02:04:59;10.00;;;4.50;;
21188;SDS011;39071;52.420;20.896;2022-12-07T02:07:27;7.03;;;3.00;;
21188;SDS011;39071;52.420;20.896;2022-12-07T02:09:53;8.83;;;3.23;;
21188;SDS011;39071;52.420;20.896;2022-12-07T02:12:19;6.73;;;3.73;;
21188;SDS011;39071;52.420;20.896;2022-12-07T02:14:47;7.93;;;3.93;;
21188;SDS011;39071;52.420;20.896;2022-12-07T02:20:00;6.43;;;3.27;;
21188;SDS011;39071;52.420;20.896;2022-12-07T02:25:32;6.87;;;4.23;;
21188;SDS011;39071;52.420;20.896;2022-12-07T02:31:17;7.03;;;3.17;;
21188;SDS011;39071;52.420;20.896;2022-12-07T02:33:55;9.53;;;3.10;;
21188;SDS011;39071;52.420;20.896;2022-12-07T02:36:31;5.10;;;2.83;;
21188;SDS011;39071;52.420;20.896;2022-12-07T02:39:15;7.70;;;3.90;;
21188;SDS011;39071;52.420;20.896;2022-12-07T02:41:52;5.90;;;3.53;;
21188;SDS011;39071;52.420;20.896;2022-12-07T02:44:22;4.70;;;2.47;;
21188;SDS011;39071;52.420;20.896;2022-12-07T02:46:54;7.40;;;3.20;;
21188;SDS011;39071;52.420;20.896;2022-12-07T02:49:26;6.10;;;3.13;;
21188;SDS011;39071;52.420;20.896;2022-12-07T02:51:53;7.13;;;3.73;;
21188;SDS011;39071;52.420;20.896;2022-12-07T02:54:20;7.50;;;2.93;;
21188;SDS011;39071;52.420;20.896;2022-12-07T02:56:55;4.93;;;2.17;;
21188;SDS011;39071;52.420;20.896;2022-12-07T02:59:33;5.20;;;2.27;;
21188;SDS011;39071;52.420;20.896;2022-12-07T03:08:14;5.07;;;2.63;;
21188;SDS011;39071;52.420;20.896;2022-12-07T03:13:30;9.30;;;2.80;;
21188;SDS011;39071;52.420;20.896;2022-12-07T03:16:03;7.10;;;3.10;;
21188;SDS011;39071;52.420;20.896;2022-12-07T03:18:31;4.63;;;2.27;;
21188;SDS011;39071;52.420;20.896;2022-12-07T03:21:05;5.97;;;3.20;;
21188;SDS011;39071;52.420;20.896;2022-12-07T03:23:35;4.90;;;2.33;;
21188;SDS011;39071;52.420;20.896;2022-12-07T03:26:04;12.77;;;4.00;;
21188;SDS011;39071;52.420;20.896;2022-12-07T03:28:35;5.23;;;2.83;;
21188;SDS011;39071;52.420;20.896;2022-12-07T03:31:05;4.70;;;2.40;;
21188;SDS011;39071;52.420;20.896;2022-12-07T03:36:17;11.60;;;3.53;;
21188;SDS011;39071;52.420;20.896;2022-12-07T03:38:50;7.40;;;2.87;;
21188;SDS011;39071;52.420;20.896;2022-12-07T03:41:27;6.80;;;2.30;;
21188;SDS011;39071;52.420;20.896;2022-12-07T03:43:55;5.13;;;2.60;;
21188;SDS011;39071;52.420;20.896;2022-12-07T03:56:53;4.17;;;1.90;;
21188;SDS011;39071;52.420;20.896;2022-12-07T03:59:20;5.40;;;2.83;;
21188;SDS011;39071;52.420;20.896;2022-12-07T04:01:54;3.90;;;1.97;;
21188;SDS011;39071;52.420;20.896;2022-12-07T04:04:22;6.00;;;1.93;;
21188;SDS011;39071;52.420;20.896;2022-12-07T04:06:49;4.23;;;2.00;;
21188;SDS011;39071;52.420;20.896;2022-12-07T04:09:15;5.97;;;3.07;;
21188;SDS011;39071;52.420;20.896;2022-12-07T04:11:41;5.00;;;3.03;;
21188;SDS011;39071;52.420;20.896;2022-12-07T04:14:07;2.43;;;1.47;;
21188;SDS011;39071;52.420;20.896;2022-12-07T04:19:16;3.57;;;2.00;;
21188;SDS011;39071;52.420;20.896;2022-12-07T04:21:44;4.03;;;2.17;;
21188;SDS011;39071;52.420;20.896;2022-12-07T04:24:11;3.10;;;2.30;;
21188;SDS011;39071;52.420;20.896;2022-12-07T04:26:38;5.97;;;2.10;;
21188;SDS011;39071;52.420;20.896;2022-12-07T04:29:04;6.10;;;2.43;;
21188;SDS011;39071;52.420;20.896;2022-12-07T04:31:30;3.87;;;2.53;;
21188;SDS011;39071;52.420;20.896;2022-12-07T04:33:56;4.30;;;1.87;;
21188;SDS011;39071;52.420;20.896;2022-12-07T04:36:22;3.10;;;1.90;;
21188;SDS011;39071;52.420;20.896;2022-12-07T04:38:48;4.80;;;2.13;;
21188;SDS011;39071;52.420;20.896;2022-12-07T04:41:13;4.27;;;1.83;;
21188;SDS011;39071;52.420;20.896;2022-12-07T04:43:39;3.03;;;1.37;;
21188;SDS011;39071;52.420;20.896;2022-12-07T04:46:05;4.57;;;1.57;;
21188;SDS011;39071;52.420;20.896;2022-12-07T04:48:31;6.33;;;2.20;;
21188;SDS011;39071;52.420;20.896;2022-12-07T04:50:56;3.37;;;1.60;;
21188;SDS011;39071;52.420;20.896;2022-12-07T04:53:22;7.63;;;2.30;;
21188;SDS011;39071;52.420;20.896;2022-12-07T04:55:48;4.37;;;2.63;;
21188;SDS011;39071;52.420;20.896;2022-12-07T04:58:14;3.40;;;1.63;;
21188;SDS011;39071;52.420;20.896;2022-12-07T05:00:40;2.20;;;1.73;;
21188;SDS011;39071;52.420;20.896;2022-12-07T05:03:05;2.30;;;1.50;;
21188;SDS011;39071;52.420;20.896;2022-12-07T05:05:31;2.10;;;0.90;;
21188;SDS011;39071;52.420;20.896;2022-12-07T05:07:57;3.37;;;1.93;;
21188;SDS011;39071;52.420;20.896;2022-12-07T05:10:23;3.43;;;1.60;;
21188;SDS011;39071;52.420;20.896;2022-12-07T05:12:49;1.20;;;1.10;;
21188;SDS011;39071;52.420;20.896;2022-12-07T05:15:15;1.60;;;1.30;;
21188;SDS011;39071;52.420;20.896;2022-12-07T05:17:41;1.93;;;1.50;;
21188;SDS011;39071;52.420;20.896;2022-12-07T05:20:07;1.97;;;1.13;;
21188;SDS011;39071;52.420;20.896;2022-12-07T05:22:33;1.67;;;1.03;;
21188;SDS011;39071;52.420;20.896;2022-12-07T05:24:59;1.57;;;1.40;;
21188;SDS011;39071;52.420;20.896;2022-12-07T05:27:25;1.13;;;0.77;;
21188;SDS011;39071;52.420;20.896;2022-12-07T05:29:51;2.10;;;1.23;;
21188;SDS011;39071;52.420;20.896;2022-12-07T05:32:17;6.33;;;2.60;;
21188;SDS011;39071;52.420;20.896;2022-12-07T05:34:43;3.30;;;1.60;;
21188;SDS011;39071;52.420;20.896;2022-12-07T05:37:10;7.40;;;2.60;;
21188;SDS011;39071;52.420;20.896;2022-12-07T05:39:35;3.27;;;1.60;;
21188;SDS011;39071;52.420;20.896;2022-12-07T05:42:02;3.67;;;1.53;;
21188;SDS011;39071;52.420;20.896;2022-12-07T05:44:38;1.80;;;1.53;;
21188;SDS011;39071;52.420;20.896;2022-12-07T05:47:04;2.47;;;1.43;;
21188;SDS011;39071;52.420;20.896;2022-12-07T05:49:30;2.10;;;1.53;;
21188;SDS011;39071;52.420;20.896;2022-12-07T05:51:56;5.83;;;2.03;;
21188;SDS011;39071;52.420;20.896;2022-12-07T05:54:21;2.60;;;2.13;;
21188;SDS011;39071;52.420;20.896;2022-12-07T05:56:47;3.13;;;1.63;;
21188;SDS011;39071;52.420;20.896;2022-12-07T05:59:13;1.80;;;1.07;;
21188;SDS011;39071;52.420;20.896;2022-12-07T06:01:50;6.10;;;1.50;;
21188;SDS011;39071;52.420;20.896;2022-12-07T06:04:26;2.83;;;1.53;;
21188;SDS011;39071;52.420;20.896;2022-12-07T06:06:54;4.43;;;1.40;;
21188;SDS011;39071;52.420;20.896;2022-12-07T06:09:21;1.17;;;1.00;;
21188;SDS011;39071;52.420;20.896;2022-12-07T06:11:48;1.63;;;1.27;;
21188;SDS011;39071;52.420;20.896;2022-12-07T06:14:32;2.83;;;1.63;;
21188;SDS011;39071;52.420;20.896;2022-12-07T06:16:58;1.73;;;1.57;;
21188;SDS011;39071;52.420;20.896;2022-12-07T06:19:24;5.33;;;1.60;;
21188;SDS011;39071;52.420;20.896;2022-12-07T06:21:50;4.97;;;2.00;;
21188;SDS011;39071;52.420;20.896;2022-12-07T06:24:16;3.30;;;1.37;;
21188;SDS011;39071;52.420;20.896;2022-12-07T06:26:42;1.63;;;1.53;;
21188;SDS011;39071;52.420;20.896;2022-12-07T06:29:08;3.83;;;2.03;;
21188;SDS011;39071;52.420;20.896;2022-12-07T06:31:35;4.37;;;2.20;;
21188;SDS011;39071;52.420;20.896;2022-12-07T06:34:02;3.33;;;2.33;;
21188;SDS011;39071;52.420;20.896;2022-12-07T06:36:30;6.37;;;1.87;;
21188;SDS011;39071;52.420;20.896;2022-12-07T06:38:55;5.00;;;1.97;;
21188;SDS011;39071;52.420;20.896;2022-12-07T06:41:22;8.57;;;2.90;;
21188;SDS011;39071;52.420;20.896;2022-12-07T06:43:48;2.87;;;1.60;;
21188;SDS011;39071;52.420;20.896;2022-12-07T06:46:15;3.63;;;1.97;;
21188;SDS011;39071;52.420;20.896;2022-12-07T06:48:41;7.33;;;2.73;;
21188;SDS011;39071;52.420;20.896;2022-12-07T06:51:07;4.63;;;2.17;;
21188;SDS011;39071;52.420;20.896;2022-12-07T06:53:33;3.30;;;2.10;;
21188;SDS011;39071;52.420;20.896;2022-12-07T06:55:59;5.67;;;2.67;;
21188;SDS011;39071;52.420;20.896;2022-12-07T06:58:25;4.40;;;1.70;;
21188;SDS011;39071;52.420;20.896;2022-12-07T07:00:51;2.20;;;1.40;;
21188;SDS011;39071;52.420;20.896;2022-12-07T07:03:17;2.87;;;1.53;;
21188;SDS011;39071;52.420;20.896;2022-12-07T07:05:43;4.73;;;1.93;;
21188;SDS011;39071;52.420;20.896;2022-12-07T07:08:10;2.17;;;1.40;;
21188;SDS011;39071;52.420;20.896;2022-12-07T07:10:36;3.67;;;1.70;;
21188;SDS011;39071;52.420;20.896;2022-12-07T07:13:02;3.43;;;1.37;;
21188;SDS011;39071;52.420;20.896;2022-12-07T07:15:30;2.43;;;1.67;;
21188;SDS011;39071;52.420;20.896;2022-12-07T07:17:56;3.63;;;2.07;;
21188;SDS011;39071;52.420;20.896;2022-12-07T07:20:22;6.33;;;2.77;;
21188;SDS011;39071;52.420;20.896;2022-12-07T07:22:48;4.73;;;3.30;;
21188;SDS011;39071;52.420;20.896;2022-12-07T07:25:14;6.23;;;1.93;;
21188;SDS011;39071;52.420;20.896;2022-12-07T07:27:41;6.17;;;2.13;;
21188;SDS011;39071;52.420;20.896;2022-12-07T07:30:07;1.97;;;1.50;;
21188;SDS011;39071;52.420;20.896;2022-12-07T07:32:33;3.40;;;1.63;;
21188;SDS011;39071;52.420;20.896;2022-12-07T07:34:59;7.10;;;1.83;;
21188;SDS011;39071;52.420;20.896;2022-12-07T07:37:25;3.13;;;1.63;;
21188;SDS011;39071;52.420;20.896;2022-12-07T07:39:51;5.50;;;2.03;;
21188;SDS011;39071;52.420;20.896;2022-12-07T07:42:17;5.60;;;2.40;;
21188;SDS011;39071;52.420;20.896;2022-12-07T07:44:43;4.57;;;2.00;;
21188;SDS011;39071;52.420;20.896;2022-12-07T07:47:09;2.20;;;1.40;;
21188;SDS011;39071;52.420;20.896;2022-12-07T07:49:35;2.23;;;1.70;;
21188;SDS011;39071;52.420;20.896;2022-12-07T07:52:00;2.03;;;1.53;;
21188;SDS011;39071;52.420;20.896;2022-12-07T07:54:26;3.90;;;1.57;;
21188;SDS011;39071;52.420;20.896;2022-12-07T07:56:52;2.60;;;1.43;;
21188;SDS011;39071;52.420;20.896;2022-12-07T07:59:18;6.57;;;1.57;;
21188;SDS011;39071;52.420;20.896;2022-12-07T08:01:44;1.50;;;1.13;;
21188;SDS011;39071;52.420;20.896;2022-12-07T08:04:10;4.33;;;1.37;;
21188;SDS011;39071;52.420;20.896;2022-12-07T08:06:35;1.10;;;0.87;;
21188;SDS011;39071;52.420;20.896;2022-12-07T08:09:01;2.77;;;1.13;;
21188;SDS011;39071;52.420;20.896;2022-12-07T08:11:27;6.53;;;1.80;;
21188;SDS011;39071;52.420;20.896;2022-12-07T08:13:53;4.73;;;1.23;;
21188;SDS011;39071;52.420;20.896;2022-12-07T08:16:19;3.37;;;1.90;;
21188;SDS011;39071;52.420;20.896;2022-12-07T08:18:45;4.70;;;2.13;;
21188;SDS011;39071;52.420;20.896;2022-12-07T08:21:12;6.37;;;2.37;;
21188;SDS011;39071;52.420;20.896;2022-12-07T08:23:39;5.70;;;2.67;;
21188;SDS011;39071;52.420;20.896;2022-12-07T08:26:06;9.97;;;3.27;;
21188;SDS011;39071;52.420;20.896;2022-12-07T08:28:34;6.43;;;3.03;;
21188;SDS011;39071;52.420;20.896;2022-12-07T08:31:04;5.87;;;3.30;;
21188;SDS011;39071;52.420;20.896;2022-12-07T08:33:31;6.33;;;2.87;;
21188;SDS011;39071;52.420;20.896;2022-12-07T08:36:04;9.43;;;3.17;;
21188;SDS011;39071;52.420;20.896;2022-12-07T08:38:35;5.97;;;2.70;;
21188;SDS011;39071;52.420;20.896;2022-12-07T08:41:02;5.90;;;3.17;;
21188;SDS011;39071;52.420;20.896;2022-12-07T08:43:28;6.73;;;2.73;;
21188;SDS011;39071;52.420;20.896;2022-12-07T08:49:06;12.43;;;3.10;;
21188;SDS011;39071;52.420;20.896;2022-12-07T08:51:36;3.37;;;2.50;;
21188;SDS011;39071;52.420;20.896;2022-12-07T08:54:03;2.17;;;1.47;;
21188;SDS011;39071;52.420;20.896;2022-12-07T08:56:31;4.80;;;1.60;;
21188;SDS011;39071;52.420;20.896;2022-12-07T08:58:58;6.50;;;2.00;;
21188;SDS011;39071;52.420;20.896;2022-12-07T09:01:24;7.77;;;3.23;;
21188;SDS011;39071;52.420;20.896;2022-12-07T09:03:49;11.77;;;1.87;;
21188;SDS011;39071;52.420;20.896;2022-12-07T09:06:15;5.40;;;2.80;;
21188;SDS011;39071;52.420;20.896;2022-12-07T09:08:42;5.97;;;2.13;;
21188;SDS011;39071;52.420;20.896;2022-12-07T09:11:11;2.70;;;1.77;;
21188;SDS011;39071;52.420;20.896;2022-12-07T09:13:37;5.50;;;2.07;;
21188;SDS011;39071;52.420;20.896;2022-12-07T09:16:03;5.77;;;3.17;;
21188;SDS011;39071;52.420;20.896;2022-12-07T09:18:29;4.53;;;2.37;;
21188;SDS011;39071;52.420;20.896;2022-12-07T09:20:55;3.53;;;2.57;;
21188;SDS011;39071;52.420;20.896;2022-12-07T09:23:21;9.40;;;3.27;;
21188;SDS011;39071;52.420;20.896;2022-12-07T09:25:47;8.47;;;2.77;;
21188;SDS011;39071;52.420;20.896;2022-12-07T09:28:13;4.03;;;2.30;;
21188;SDS011;39071;52.420;20.896;2022-12-07T09:30:44;4.57;;;2.07;;
21188;SDS011;39071;52.420;20.896;2022-12-07T09:33:14;5.47;;;2.17;;
21188;SDS011;39071;52.420;20.896;2022-12-07T09:35:48;8.30;;;2.30;;
21188;SDS011;39071;52.420;20.896;2022-12-07T09:38:15;3.77;;;2.30;;
21188;SDS011;39071;52.420;20.896;2022-12-07T09:40:42;4.90;;;2.77;;
21188;SDS011;39071;52.420;20.896;2022-12-07T09:43:14;6.63;;;3.73;;
21188;SDS011;39071;52.420;20.896;2022-12-07T09:45:46;4.77;;;2.47;;
21188;SDS011;39071;52.420;20.896;2022-12-07T09:48:18;2.50;;;1.60;;
21188;SDS011;39071;52.420;20.896;2022-12-07T09:50:47;4.77;;;2.50;;
21188;SDS011;39071;52.420;20.896;2022-12-07T09:53:56;5.93;;;1.73;;
21188;SDS011;39071;52.420;20.896;2022-12-07T09:56:03;6.60;;;3.43;;
21188;SDS011;39071;52.420;20.896;2022-12-07T09:58:30;9.30;;;2.73;;
21188;SDS011;39071;52.420;20.896;2022-12-07T10:03:32;5.10;;;2.23;;
21188;SDS011;39071;52.420;20.896;2022-12-07T10:06:00;2.97;;;2.63;;
21188;SDS011;39071;52.420;20.896;2022-12-07T10:08:27;4.17;;;1.53;;
21188;SDS011;39071;52.420;20.896;2022-12-07T10:10:54;3.47;;;1.90;;
21188;SDS011;39071;52.420;20.896;2022-12-07T10:13:34;6.83;;;2.50;;
21188;SDS011;39071;52.420;20.896;2022-12-07T10:16:03;5.67;;;2.73;;
21188;SDS011;39071;52.420;20.896;2022-12-07T10:23:40;4.73;;;2.00;;
21188;SDS011;39071;52.420;20.896;2022-12-07T10:26:47;5.27;;;1.77;;
21188;SDS011;39071;52.420;20.896;2022-12-07T10:29:15;7.10;;;2.80;;
21188;SDS011;39071;52.420;20.896;2022-12-07T10:31:42;3.10;;;2.03;;
21188;SDS011;39071;52.420;20.896;2022-12-07T10:34:32;6.90;;;2.67;;
21188;SDS011;39071;52.420;20.896;2022-12-07T10:42:15;7.00;;;2.87;;
21188;SDS011;39071;52.420;20.896;2022-12-07T10:44:44;10.60;;;2.13;;
21188;SDS011;39071;52.420;20.896;2022-12-07T10:47:22;2.00;;;1.13;;
21188;SDS011;39071;52.420;20.896;2022-12-07T10:49:57;3.47;;;1.87;;
21188;SDS011;39071;52.420;20.896;2022-12-07T10:52:56;6.07;;;1.53;;
21188;SDS011;39071;52.420;20.896;2022-12-07T10:55:26;6.93;;;2.70;;
21188;SDS011;39071;52.420;20.896;2022-12-07T11:06:34;8.13;;;2.07;;
21188;SDS011;39071;52.420;20.896;2022-12-07T11:25:49;7.23;;;2.83;;
21188;SDS011;39071;52.420;20.896;2022-12-07T11:31:50;3.87;;;1.90;;
21188;SDS011;39071;52.420;20.896;2022-12-07T11:37:39;6.17;;;3.07;;
21188;SDS011;39071;52.420;20.896;2022-12-07T11:40:21;8.20;;;3.57;;
21188;SDS011;39071;52.420;20.896;2022-12-07T11:48:47;9.33;;;3.23;;
21188;SDS011;39071;52.420;20.896;2022-12-07T11:51:28;10.33;;;2.70;;
21188;SDS011;39071;52.420;20.896;2022-12-07T11:54:05;6.57;;;2.77;;
21188;SDS011;39071;52.420;20.896;2022-12-07T11:56:42;8.57;;;3.30;;
21188;SDS011;39071;52.420;20.896;2022-12-07T11:59:12;7.57;;;2.17;;
21188;SDS011;39071;52.420;20.896;2022-12-07T12:02:02;9.17;;;2.90;;
21188;SDS011;39071;52.420;20.896;2022-12-07T12:04:59;6.43;;;2.67;;
21188;SDS011;39071;52.420;20.896;2022-12-07T12:07:27;6.73;;;2.90;;
21188;SDS011;39071;52.420;20.896;2022-12-07T12:09:55;6.07;;;2.70;;
21188;SDS011;39071;52.420;20.896;2022-12-07T12:12:34;2.40;;;1.70;;
21188;SDS011;39071;52.420;20.896;2022-12-07T12:26:05;6.53;;;3.00;;
21188;SDS011;39071;52.420;20.896;2022-12-07T12:28:49;4.33;;;1.90;;
21188;SDS011;39071;52.420;20.896;2022-12-07T12:31:38;7.57;;;3.13;;
21188;SDS011;39071;52.420;20.896;2022-12-07T12:34:29;5.33;;;2.83;;
21188;SDS011;39071;52.420;20.896;2022-12-07T12:36:57;5.80;;;3.17;;
21188;SDS011;39071;52.420;20.896;2022-12-07T12:39:23;7.10;;;3.70;;
21188;SDS011;39071;52.420;20.896;2022-12-07T12:41:51;5.80;;;2.80;;
21188;SDS011;39071;52.420;20.896;2022-12-07T12:46:48;7.23;;;2.40;;
21188;SDS011;39071;52.420;20.896;2022-12-07T12:57:35;4.60;;;2.20;;
21188;SDS011;39071;52.420;20.896;2022-12-07T13:00:23;5.67;;;2.43;;
21188;SDS011;39071;52.420;20.896;2022-12-07T13:02:50;7.40;;;2.63;;
21188;SDS011;39071;52.420;20.896;2022-12-07T13:05:19;6.10;;;2.77;;
21188;SDS011;39071;52.420;20.896;2022-12-07T13:07:50;6.00;;;2.80;;
21188;SDS011;39071;52.420;20.896;2022-12-07T13:10:39;8.07;;;2.93;;
21188;SDS011;39071;52.420;20.896;2022-12-07T13:23:34;4.87;;;2.23;;
21188;SDS011;39071;52.420;20.896;2022-12-07T13:26:06;4.17;;;1.90;;
21188;SDS011;39071;52.420;20.896;2022-12-07T13:28:44;7.00;;;2.40;;
21188;SDS011;39071;52.420;20.896;2022-12-07T13:31:19;5.00;;;2.07;;
21188;SDS011;39071;52.420;20.896;2022-12-07T13:33:54;4.47;;;1.87;;
21188;SDS011;39071;52.420;20.896;2022-12-07T13:36:26;5.63;;;2.93;;
21188;SDS011;39071;52.420;20.896;2022-12-07T13:38:57;4.83;;;3.00;;
21188;SDS011;39071;52.420;20.896;2022-12-07T13:41:31;4.57;;;1.57;;
21188;SDS011;39071;52.420;20.896;2022-12-07T13:44:01;5.23;;;2.10;;
21188;SDS011;39071;52.420;20.896;2022-12-07T13:46:33;2.37;;;2.17;;
21188;SDS011;39071;52.420;20.896;2022-12-07T13:49:15;1.83;;;1.30;;
21188;SDS011;39071;52.420;20.896;2022-12-07T13:51:43;2.93;;;1.87;;
21188;SDS011;39071;52.420;20.896;2022-12-07T13:54:10;6.97;;;2.17;;
21188;SDS011;39071;52.420;20.896;2022-12-07T13:56:37;2.73;;;1.50;;
21188;SDS011;39071;52.420;20.896;2022-12-07T13:59:05;6.37;;;2.70;;
21188;SDS011;39071;52.420;20.896;2022-12-07T14:01:48;9.23;;;1.83;;
21188;SDS011;39071;52.420;20.896;2022-12-07T14:06:47;3.80;;;2.20;;
21188;SDS011;39071;52.420;20.896;2022-12-07T14:09:25;6.00;;;2.10;;
21188;SDS011;39071;52.420;20.896;2022-12-07T14:11:52;5.80;;;2.77;;
21188;SDS011;39071;52.420;20.896;2022-12-07T14:14:20;8.03;;;1.80;;
21188;SDS011;39071;52.420;20.896;2022-12-07T14:17:25;4.17;;;1.87;;
21188;SDS011;39071;52.420;20.896;2022-12-07T14:19:51;7.73;;;2.80;;
21188;SDS011;39071;52.420;20.896;2022-12-07T14:24:48;5.50;;;2.47;;
21188;SDS011;39071;52.420;20.896;2022-12-07T14:27:21;5.17;;;2.97;;
21188;SDS011;39071;52.420;20.896;2022-12-07T14:29:50;6.80;;;2.07;;
21188;SDS011;39071;52.420;20.896;2022-12-07T14:32:27;7.43;;;2.17;;
21188;SDS011;39071;52.420;20.896;2022-12-07T14:34:58;3.10;;;1.80;;
21188;SDS011;39071;52.420;20.896;2022-12-07T14:37:26;6.03;;;2.17;;
21188;SDS011;39071;52.420;20.896;2022-12-07T14:39:53;4.03;;;1.90;;
21188;SDS011;39071;52.420;20.896;2022-12-07T14:42:19;2.93;;;1.87;;
21188;SDS011;39071;52.420;20.896;2022-12-07T14:44:47;4.37;;;3.03;;
21188;SDS011;39071;52.420;20.896;2022-12-07T14:47:13;5.07;;;2.23;;
21188;SDS011;39071;52.420;20.896;2022-12-07T14:49:38;7.07;;;3.07;;
21188;SDS011;39071;52.420;20.896;2022-12-07T14:52:05;5.63;;;2.43;;
21188;SDS011;39071;52.420;20.896;2022-12-07T14:54:35;4.83;;;2.00;;
21188;SDS011;39071;52.420;20.896;2022-12-07T14:57:01;5.10;;;1.93;;
21188;SDS011;39071;52.420;20.896;2022-12-07T14:59:27;4.37;;;1.97;;
21188;SDS011;39071;52.420;20.896;2022-12-07T15:01:53;7.13;;;2.60;;
21188;SDS011;39071;52.420;20.896;2022-12-07T15:04:19;7.33;;;2.70;;
21188;SDS011;39071;52.420;20.896;2022-12-07T15:06:54;3.00;;;1.67;;
21188;SDS011;39071;52.420;20.896;2022-12-07T15:09:24;5.37;;;2.00;;
21188;SDS011;39071;52.420;20.896;2022-12-07T15:11:50;6.43;;;2.23;;
21188;SDS011;39071;52.420;20.896;2022-12-07T15:14:16;1.93;;;1.30;;
21188;SDS011;39071;52.420;20.896;2022-12-07T15:16:42;1.20;;;0.97;;
21188;SDS011;39071;52.420;20.896;2022-12-07T15:19:12;4.33;;;2.80;;
21188;SDS011;39071;52.420;20.896;2022-12-07T15:21:43;4.47;;;2.13;;
21188;SDS011;39071;52.420;20.896;2022-12-07T15:24:10;4.40;;;1.87;;
21188;SDS011;39071;52.420;20.896;2022-12-07T15:26:37;3.93;;;1.80;;
21188;SDS011;39071;52.420;20.896;2022-12-07T15:29:04;3.33;;;1.57;;
21188;SDS011;39071;52.420;20.896;2022-12-07T15:31:30;2.77;;;2.00;;
21188;SDS011;39071;52.420;20.896;2022-12-07T15:33:55;2.97;;;1.87;;
21188;SDS011;39071;52.420;20.896;2022-12-07T15:36:22;8.87;;;3.00;;
21188;SDS011;39071;52.420;20.896;2022-12-07T15:38:49;7.07;;;2.27;;
21188;SDS011;39071;52.420;20.896;2022-12-07T15:41:16;3.47;;;2.03;;
21188;SDS011;39071;52.420;20.896;2022-12-07T15:43:42;5.27;;;2.63;;
21188;SDS011;39071;52.420;20.896;2022-12-07T15:46:35;5.97;;;2.43;;
21188;SDS011;39071;52.420;20.896;2022-12-07T15:49:03;5.70;;;3.00;;
21188;SDS011;39071;52.420;20.896;2022-12-07T15:51:35;4.47;;;3.10;;
21188;SDS011;39071;52.420;20.896;2022-12-07T15:54:00;7.57;;;3.27;;
21188;SDS011;39071;52.420;20.896;2022-12-07T15:56:26;4.67;;;2.10;;
21188;SDS011;39071;52.420;20.896;2022-12-07T15:58:52;7.00;;;3.00;;
21188;SDS011;39071;52.420;20.896;2022-12-07T16:01:18;3.33;;;2.50;;
21188;SDS011;39071;52.420;20.896;2022-12-07T16:03:45;14.70;;;2.90;;
21188;SDS011;39071;52.420;20.896;2022-12-07T16:06:11;7.60;;;2.50;;
21188;SDS011;39071;52.420;20.896;2022-12-07T16:08:43;5.50;;;2.70;;
21188;SDS011;39071;52.420;20.896;2022-12-07T16:11:10;7.77;;;3.07;;
21188;SDS011;39071;52.420;20.896;2022-12-07T16:13:36;8.07;;;3.20;;
21188;SDS011;39071;52.420;20.896;2022-12-07T16:16:04;6.67;;;3.07;;
21188;SDS011;39071;52.420;20.896;2022-12-07T16:18:31;13.20;;;5.30;;
21188;SDS011;39071;52.420;20.896;2022-12-07T16:20:57;7.93;;;4.67;;
21188;SDS011;39071;52.420;20.896;2022-12-07T16:23:26;16.93;;;4.67;;
21188;SDS011;39071;52.420;20.896;2022-12-07T16:25:52;8.97;;;4.30;;
21188;SDS011;39071;52.420;20.896;2022-12-07T16:28:18;5.80;;;4.40;;
21188;SDS011;39071;52.420;20.896;2022-12-07T16:30:44;7.87;;;3.70;;
21188;SDS011;39071;52.420;20.896;2022-12-07T16:33:10;8.33;;;3.37;;
21188;SDS011;39071;52.420;20.896;2022-12-07T16:35:39;6.30;;;3.00;;
21188;SDS011;39071;52.420;20.896;2022-12-07T16:38:06;11.97;;;5.17;;
21188;SDS011;39071;52.420;20.896;2022-12-07T16:40:32;11.13;;;2.47;;
21188;SDS011;39071;52.420;20.896;2022-12-07T16:42:58;6.13;;;2.90;;
21188;SDS011;39071;52.420;20.896;2022-12-07T16:45:23;8.53;;;3.70;;
21188;SDS011;39071;52.420;20.896;2022-12-07T16:47:49;7.00;;;3.30;;
21188;SDS011;39071;52.420;20.896;2022-12-07T16:50:15;10.53;;;4.27;;
21188;SDS011;39071;52.420;20.896;2022-12-07T16:52:41;8.97;;;3.60;;